sensor_id;sensor_type;location;lat;lon;timestamp;pressure;altitude;pressure_sealevel;temperature;humidity
68871;BME280;55906;52.278;6.808;2023-05-11T00:01:46;101280.56;;;15.94;79.59
68871;BME280;55906;52.278;6.808;2023-05-11T00:04:13;101279.69;;;15.95;79.59
68871;BME280;55906;52.278;6.808;2023-05-11T00:06:40;101278.81;;;15.95;79.86
68871;BME280;55906;52.278;6.808;2023-05-11T00:09:06;101272.59;;;15.94;79.93
68871;BME280;55906;52.278;6.808;2023-05-11T00:11:34;101276.13;;;15.93;79.95
68871;BME280;55906;52.278;6.808;2023-05-11T00:14:00;101276.09;;;15.90;80.09
68871;BME280;55906;52.278;6.808;2023-05-11T00:16:28;101270.78;;;15.90;80.24
68871;BME280;55906;52.278;6.808;2023-05-11T00:18:55;101269.88;;;15.87;80.17
68871;BME280;55906;52.278;6.808;2023-05-11T00:21:22;101271.63;;;15.85;80.22
68871;BME280;55906;52.278;6.808;2023-05-11T00:23:48;101266.28;;;15.83;80.10
68871;BME280;55906;52.278;6.808;2023-05-11T00:26:15;101268.03;;;15.81;80.05
68871;BME280;55906;52.278;6.808;2023-05-11T00:28:41;101269.81;;;15.81;80.24
68871;BME280;55906;52.278;6.808;2023-05-11T00:31:09;101270.69;;;15.80;80.28
68871;BME280;55906;52.278;6.808;2023-05-11T00:33:37;101270.66;;;15.78;80.04
68871;BME280;55906;52.278;6.808;2023-05-11T00:36:04;101267.13;;;15.79;80.55
68871;BME280;55906;52.278;6.808;2023-05-11T00:38:32;101265.34;;;15.78;80.37
68871;BME280;55906;52.278;6.808;2023-05-11T00:41:00;101267.13;;;15.79;80.26
68871;BME280;55906;52.278;6.808;2023-05-11T00:43:27;101258.31;;;15.80;80.36
68871;BME280;55906;52.278;6.808;2023-05-11T00:45:54;101260.06;;;15.78;80.33
68871;BME280;55906;52.278;6.808;2023-05-11T00:48:20;101253.84;;;15.78;80.27
68871;BME280;55906;52.278;6.808;2023-05-11T00:50:49;101248.56;;;15.78;80.63
68871;BME280;55906;52.278;6.808;2023-05-11T00:53:16;101253.84;;;15.76;80.32
68871;BME280;55906;52.278;6.808;2023-05-11T00:55:43;101259.13;;;15.75;80.25
68871;BME280;55906;52.278;6.808;2023-05-11T00:58:10;101260.91;;;15.76;80.35
68871;BME280;55906;52.278;6.808;2023-05-11T01:00:37;101263.53;;;15.74;80.29
68871;BME280;55906;52.278;6.808;2023-05-11T01:03:03;101268.84;;;15.74;80.10
68871;BME280;55906;52.278;6.808;2023-05-11T01:05:35;101263.53;;;15.74;80.61
68871;BME280;55906;52.278;6.808;2023-05-11T01:08:12;101270.63;;;15.74;80.32
68871;BME280;55906;52.278;6.808;2023-05-11T01:10:42;101272.34;;;15.70;80.22
68871;BME280;55906;52.278;6.808;2023-05-11T01:13:17;101271.44;;;15.70;80.12
68871;BME280;55906;52.278;6.808;2023-05-11T01:15:50;101267.88;;;15.67;80.38
68871;BME280;55906;52.278;6.808;2023-05-11T01:18:24;101270.53;;;15.67;80.68
68871;BME280;55906;52.278;6.808;2023-05-11T01:20:54;101270.56;;;15.69;79.85
68871;BME280;55906;52.278;6.808;2023-05-11T01:23:43;101267.88;;;15.66;80.86
68871;BME280;55906;52.278;6.808;2023-05-11T01:26:34;101259.00;;;15.62;80.24
68871;BME280;55906;52.278;6.808;2023-05-11T01:29:12;101266.84;;;15.58;80.40
68871;BME280;55906;52.278;6.808;2023-05-11T01:31:47;101268.56;;;15.54;80.38
68871;BME280;55906;52.278;6.808;2023-05-11T01:34:16;101265.91;;;15.54;80.27
68871;BME280;55906;52.278;6.808;2023-05-11T01:36:48;101260.56;;;15.53;80.61
68871;BME280;55906;52.278;6.808;2023-05-11T01:39:20;101272.97;;;15.55;80.06
68871;BME280;55906;52.278;6.808;2023-05-11T01:41:51;101259.72;;;15.55;79.91
68871;BME280;55906;52.278;6.808;2023-05-11T01:44:20;101263.25;;;15.54;79.79
68871;BME280;55906;52.278;6.808;2023-05-11T01:46:51;101270.31;;;15.54;79.67
68871;BME280;55906;52.278;6.808;2023-05-11T01:49:19;101264.94;;;15.48;80.07
68871;BME280;55906;52.278;6.808;2023-05-11T01:51:48;101267.56;;;15.46;80.25
68871;BME280;55906;52.278;6.808;2023-05-11T01:54:17;101264.88;;;15.43;80.12
68871;BME280;55906;52.278;6.808;2023-05-11T01:56:46;101271.03;;;15.41;80.39
68871;BME280;55906;52.278;6.808;2023-05-11T01:59:15;101269.25;;;15.40;80.41
68871;BME280;55906;52.278;6.808;2023-05-11T02:01:43;101267.47;;;15.37;80.79
68871;BME280;55906;52.278;6.808;2023-05-11T02:04:12;101275.41;;;15.37;81.02
68871;BME280;55906;52.278;6.808;2023-05-11T02:06:41;101280.72;;;15.38;81.01
68871;BME280;55906;52.278;6.808;2023-05-11T02:09:10;101286.91;;;15.37;80.53
68871;BME280;55906;52.278;6.808;2023-05-11T02:11:37;101281.59;;;15.37;80.95
68871;BME280;55906;52.278;6.808;2023-05-11T02:14:08;101285.13;;;15.36;80.69
68871;BME280;55906;52.278;6.808;2023-05-11T02:16:36;101286.00;;;15.35;80.71
68871;BME280;55906;52.278;6.808;2023-05-11T02:19:04;101286.00;;;15.35;80.88
68871;BME280;55906;52.278;6.808;2023-05-11T02:21:33;101288.66;;;15.35;80.97
68871;BME280;55906;52.278;6.808;2023-05-11T02:24:04;101286.88;;;15.34;80.79
68871;BME280;55906;52.278;6.808;2023-05-11T02:26:32;101286.00;;;15.35;81.08
68871;BME280;55906;52.278;6.808;2023-05-11T02:28:58;101287.78;;;15.36;80.79
68871;BME280;55906;52.278;6.808;2023-05-11T02:31:28;101288.63;;;15.34;80.63
68871;BME280;55906;52.278;6.808;2023-05-11T02:33:59;101291.31;;;15.35;80.89
68871;BME280;55906;52.278;6.808;2023-05-11T02:36:28;101289.47;;;15.31;81.08
68871;BME280;55906;52.278;6.808;2023-05-11T02:39:02;101293.88;;;15.31;81.19
68871;BME280;55906;52.278;6.808;2023-05-11T02:41:31;101290.31;;;15.27;81.16
68871;BME280;55906;52.278;6.808;2023-05-11T02:44:03;101298.31;;;15.30;81.17
68871;BME280;55906;52.278;6.808;2023-05-11T02:46:34;101301.81;;;15.28;81.07
68871;BME280;55906;52.278;6.808;2023-05-11T02:49:04;101296.47;;;15.26;81.34
68871;BME280;55906;52.278;6.808;2023-05-11T02:51:36;101294.69;;;15.24;81.67
68871;BME280;55906;52.278;6.808;2023-05-11T02:54:06;101295.53;;;15.23;81.50
68871;BME280;55906;52.278;6.808;2023-05-11T02:56:35;101290.22;;;15.20;81.49
68871;BME280;55906;52.278;6.808;2023-05-11T02:59:02;101295.50;;;15.20;81.57
68871;BME280;55906;52.278;6.808;2023-05-11T03:01:29;101299.03;;;15.20;81.56
68871;BME280;55906;52.278;6.808;2023-05-11T03:03:56;101307.03;;;15.22;81.62
68871;BME280;55906;52.278;6.808;2023-05-11T03:06:22;101297.25;;;15.19;81.63
68871;BME280;55906;52.278;6.808;2023-05-11T03:08:49;101301.69;;;15.20;81.69
68871;BME280;55906;52.278;6.808;2023-05-11T03:11:17;101303.47;;;15.21;81.46
68871;BME280;55906;52.278;6.808;2023-05-11T03:13:45;101297.28;;;15.21;81.32
68871;BME280;55906;52.278;6.808;2023-05-11T03:16:12;101305.22;;;15.19;81.44
68871;BME280;55906;52.278;6.808;2023-05-11T03:18:40;101304.34;;;15.20;81.41
68871;BME280;55906;52.278;6.808;2023-05-11T03:21:07;101306.13;;;15.21;81.09
68871;BME280;55906;52.278;6.808;2023-05-11T03:23:34;101306.16;;;15.23;81.08
68871;BME280;55906;52.278;6.808;2023-05-11T03:26:03;101310.59;;;15.25;81.17
68871;BME280;55906;52.278;6.808;2023-05-11T03:28:31;101309.72;;;15.25;81.20
68871;BME280;55906;52.278;6.808;2023-05-11T03:30:59;101305.31;;;15.27;81.40
68871;BME280;55906;52.278;6.808;2023-05-11T03:33:26;101300.03;;;15.27;81.29
68871;BME280;55906;52.278;6.808;2023-05-11T03:35:53;101308.91;;;15.30;81.13
68871;BME280;55906;52.278;6.808;2023-05-11T03:38:21;101302.75;;;15.33;80.93
68871;BME280;55906;52.278;6.808;2023-05-11T03:40:51;101308.91;;;15.30;81.21
68871;BME280;55906;52.278;6.808;2023-05-11T03:43:18;101305.34;;;15.28;81.32
68871;BME280;55906;52.278;6.808;2023-05-11T03:45:49;101305.31;;;15.25;81.41
68871;BME280;55906;52.278;6.808;2023-05-11T03:48:17;101305.25;;;15.22;81.24
68871;BME280;55906;52.278;6.808;2023-05-11T03:50:44;101299.09;;;15.23;80.91
68871;BME280;55906;52.278;6.808;2023-05-11T03:53:12;101304.38;;;15.23;81.26
68871;BME280;55906;52.278;6.808;2023-05-11T03:55:39;101305.25;;;15.22;81.26
68871;BME280;55906;52.278;6.808;2023-05-11T03:58:06;101299.97;;;15.22;81.14
68871;BME280;55906;52.278;6.808;2023-05-11T04:00:36;101297.31;;;15.22;81.29
68871;BME280;55906;52.278;6.808;2023-05-11T04:03:05;101298.16;;;15.20;81.26
68871;BME280;55906;52.278;6.808;2023-05-11T04:05:32;101294.56;;;15.16;81.38
68871;BME280;55906;52.278;6.808;2023-05-11T04:07:59;101294.47;;;15.09;82.12
68871;BME280;55906;52.278;6.808;2023-05-11T04:10:26;101297.06;;;15.05;82.21
68871;BME280;55906;52.278;6.808;2023-05-11T04:12:52;101294.16;;;14.87;83.38
68871;BME280;55906;52.278;6.808;2023-05-11T04:15:19;101301.91;;;14.75;83.35
68871;BME280;55906;52.278;6.808;2023-05-11T04:17:46;101297.34;;;14.66;83.33
68871;BME280;55906;52.278;6.808;2023-05-11T04:20:14;101299.03;;;14.61;83.44
68871;BME280;55906;52.278;6.808;2023-05-11T04:22:41;101296.22;;;14.51;84.68
68871;BME280;55906;52.278;6.808;2023-05-11T04:25:08;101300.63;;;14.50;84.16
68871;BME280;55906;52.278;6.808;2023-05-11T04:27:34;101298.75;;;14.43;85.20
68871;BME280;55906;52.278;6.808;2023-05-11T04:30:01;101304.94;;;14.45;84.80
68871;BME280;55906;52.278;6.808;2023-05-11T04:32:28;101301.41;;;14.45;84.86
68871;BME280;55906;52.278;6.808;2023-05-11T04:34:54;101315.50;;;14.44;85.18
68871;BME280;55906;52.278;6.808;2023-05-11T04:37:22;101317.31;;;14.46;84.64
68871;BME280;55906;52.278;6.808;2023-05-11T04:39:49;101318.25;;;14.48;84.86
68871;BME280;55906;52.278;6.808;2023-05-11T04:42:16;101324.44;;;14.50;85.19
68871;BME280;55906;52.278;6.808;2023-05-11T04:44:42;101317.41;;;14.51;85.85
68871;BME280;55906;52.278;6.808;2023-05-11T04:47:09;101325.38;;;14.52;85.98
68871;BME280;55906;52.278;6.808;2023-05-11T04:49:36;101317.47;;;14.55;86.50
68871;BME280;55906;52.278;6.808;2023-05-11T04:52:04;101328.16;;;14.60;85.85
68871;BME280;55906;52.278;6.808;2023-05-11T04:54:32;101327.31;;;14.62;86.37
68871;BME280;55906;52.278;6.808;2023-05-11T04:56:58;101329.13;;;14.65;85.93
68871;BME280;55906;52.278;6.808;2023-05-11T04:59:25;101336.25;;;14.69;85.67
68871;BME280;55906;52.278;6.808;2023-05-11T05:01:51;101340.69;;;14.71;86.01
68871;BME280;55906;52.278;6.808;2023-05-11T05:04:18;101341.56;;;14.70;85.92
68871;BME280;55906;52.278;6.808;2023-05-11T05:06:45;101344.28;;;14.75;85.50
68871;BME280;55906;52.278;6.808;2023-05-11T05:09:11;101338.09;;;14.75;85.65
68871;BME280;55906;52.278;6.808;2023-05-11T05:11:39;101346.06;;;14.76;85.84
68871;BME280;55906;52.278;6.808;2023-05-11T05:14:06;101339.88;;;14.76;85.45
68871;BME280;55906;52.278;6.808;2023-05-11T05:16:33;101340.72;;;14.73;85.49
68871;BME280;55906;52.278;6.808;2023-05-11T05:18:59;101346.97;;;14.77;85.52
68871;BME280;55906;52.278;6.808;2023-05-11T05:21:26;101341.75;;;14.83;85.27
68871;BME280;55906;52.278;6.808;2023-05-11T05:23:53;101347.13;;;14.86;85.44
68871;BME280;55906;52.278;6.808;2023-05-11T05:26:19;101350.72;;;14.91;85.23
68871;BME280;55906;52.278;6.808;2023-05-11T05:28:48;101353.50;;;14.98;84.72
68871;BME280;55906;52.278;6.808;2023-05-11T05:31:14;101350.88;;;15.00;84.80
68871;BME280;55906;52.278;6.808;2023-05-11T05:33:41;101349.19;;;15.05;84.34
68871;BME280;55906;52.278;6.808;2023-05-11T05:36:08;101356.31;;;15.09;84.24
68871;BME280;55906;52.278;6.808;2023-05-11T05:38:34;101344.00;;;15.13;83.82
68871;BME280;55906;52.278;6.808;2023-05-11T05:41:01;101352.03;;;15.19;83.74
68871;BME280;55906;52.278;6.808;2023-05-11T05:43:28;101359.97;;;15.17;83.21
68871;BME280;55906;52.278;6.808;2023-05-11T05:45:56;101356.50;;;15.23;83.17
68871;BME280;55906;52.278;6.808;2023-05-11T05:48:22;101355.66;;;15.25;83.26
68871;BME280;55906;52.278;6.808;2023-05-11T05:50:49;101365.44;;;15.29;82.54
68871;BME280;55906;52.278;6.808;2023-05-11T05:53:16;101366.44;;;15.37;82.65
68871;BME280;55906;52.278;6.808;2023-05-11T05:55:42;101370.06;;;15.44;82.38
68871;BME280;55906;52.278;6.808;2023-05-11T05:58:09;101368.38;;;15.49;81.64
68871;BME280;55906;52.278;6.808;2023-05-11T06:00:36;101369.34;;;15.56;81.66
68871;BME280;55906;52.278;6.808;2023-05-11T06:03:04;101373.09;;;15.67;81.24
68871;BME280;55906;52.278;6.808;2023-05-11T06:05:31;101386.44;;;15.73;81.37
68871;BME280;55906;52.278;6.808;2023-05-11T06:07:58;101379.53;;;15.86;80.83
68871;BME280;55906;52.278;6.808;2023-05-11T06:10:24;101381.28;;;15.84;80.88
68871;BME280;55906;52.278;6.808;2023-05-11T06:12:52;101383.09;;;15.88;80.75
68871;BME280;55906;52.278;6.808;2023-05-11T06:15:18;101381.31;;;15.87;79.79
68871;BME280;55906;52.278;6.808;2023-05-11T06:17:45;101380.28;;;15.74;79.51
68871;BME280;55906;52.278;6.808;2023-05-11T06:20:13;101377.88;;;15.94;79.78
68871;BME280;55906;52.278;6.808;2023-05-11T06:22:40;101387.78;;;16.09;80.18
68871;BME280;55906;52.278;6.808;2023-05-11T06:25:07;101380.78;;;16.17;79.44
68871;BME280;55906;52.278;6.808;2023-05-11T06:27:34;101379.94;;;16.21;78.95
68871;BME280;55906;52.278;6.808;2023-05-11T06:30:00;101380.09;;;16.35;78.11
68871;BME280;55906;52.278;6.808;2023-05-11T06:32:27;101378.44;;;16.46;78.00
68871;BME280;55906;52.278;6.808;2023-05-11T06:34:54;101387.28;;;16.45;76.98
68871;BME280;55906;52.278;6.808;2023-05-11T06:37:21;101379.47;;;16.61;77.40
68871;BME280;55906;52.278;6.808;2023-05-11T06:39:48;101369.88;;;16.74;76.96
68871;BME280;55906;52.278;6.808;2023-05-11T06:42:15;101377.06;;;16.86;75.39
68871;BME280;55906;52.278;6.808;2023-05-11T06:44:41;101372.91;;;17.15;76.33
68871;BME280;55906;52.278;6.808;2023-05-11T06:47:08;101377.38;;;17.24;74.82
68871;BME280;55906;52.278;6.808;2023-05-11T06:49:34;101367.75;;;17.43;75.48
68871;BME280;55906;52.278;6.808;2023-05-11T06:52:01;101375.69;;;17.38;73.00
68871;BME280;55906;52.278;6.808;2023-05-11T06:54:29;101375.81;;;17.55;74.04
68871;BME280;55906;52.278;6.808;2023-05-11T06:56:56;101389.06;;;17.49;74.32
68871;BME280;55906;52.278;6.808;2023-05-11T06:59:23;101380.25;;;17.56;74.16
68871;BME280;55906;52.278;6.808;2023-05-11T07:01:49;101388.19;;;17.48;73.60
68871;BME280;55906;52.278;6.808;2023-05-11T07:04:16;101398.84;;;17.51;72.63
68871;BME280;55906;52.278;6.808;2023-05-11T07:06:42;101394.38;;;17.46;74.10
68871;BME280;55906;52.278;6.808;2023-05-11T07:09:09;101389.91;;;17.42;72.27
68871;BME280;55906;52.278;6.808;2023-05-11T07:11:37;101392.59;;;17.46;73.53
68871;BME280;55906;52.278;6.808;2023-05-11T07:14:04;101400.59;;;17.48;73.27
68871;BME280;55906;52.278;6.808;2023-05-11T07:16:32;101397.97;;;17.57;73.44
68871;BME280;55906;52.278;6.808;2023-05-11T07:19:02;101404.28;;;17.67;73.46
68871;BME280;55906;52.278;6.808;2023-05-11T07:21:29;101403.41;;;17.72;73.35
68871;BME280;55906;52.278;6.808;2023-05-11T07:23:56;101404.28;;;17.70;73.39
68871;BME280;55906;52.278;6.808;2023-05-11T07:26:23;101407.88;;;17.79;73.14
68871;BME280;55906;52.278;6.808;2023-05-11T07:28:51;101399.06;;;17.91;72.80
68871;BME280;55906;52.278;6.808;2023-05-11T07:31:18;101406.25;;;18.07;72.64
68871;BME280;55906;52.278;6.808;2023-05-11T07:33:45;101410.69;;;18.10;72.45
68871;BME280;55906;52.278;6.808;2023-05-11T07:36:11;101398.34;;;18.24;71.30
68871;BME280;55906;52.278;6.808;2023-05-11T07:38:38;101409.03;;;18.33;71.69
68871;BME280;55906;52.278;6.808;2023-05-11T07:41:05;101406.41;;;18.54;71.14
68871;BME280;55906;52.278;6.808;2023-05-11T07:43:32;101405.56;;;18.71;71.30
68871;BME280;55906;52.278;6.808;2023-05-11T07:46:00;101396.69;;;18.82;70.77
68871;BME280;55906;52.278;6.808;2023-05-11T07:48:27;101400.25;;;18.95;70.19
68871;BME280;55906;52.278;6.808;2023-05-11T07:50:53;101390.47;;;19.03;70.38
68871;BME280;55906;52.278;6.808;2023-05-11T07:53:20;101390.44;;;19.28;69.69
68871;BME280;55906;52.278;6.808;2023-05-11T07:55:47;101382.41;;;19.37;69.33
68871;BME280;55906;52.278;6.808;2023-05-11T07:58:13;101376.22;;;19.24;67.59
68871;BME280;55906;52.278;6.808;2023-05-11T08:00:40;101390.44;;;19.22;67.60
68871;BME280;55906;52.278;6.808;2023-05-11T08:03:08;101389.59;;;18.92;67.52
68871;BME280;55906;52.278;6.808;2023-05-11T08:05:35;101400.22;;;19.21;68.01
68871;BME280;55906;52.278;6.808;2023-05-11T08:08:02;101394.88;;;19.38;67.12
68871;BME280;55906;52.278;6.808;2023-05-11T08:10:29;101389.56;;;19.56;67.17
68871;BME280;55906;52.278;6.808;2023-05-11T08:12:56;101388.63;;;19.71;66.58
68871;BME280;55906;52.278;6.808;2023-05-11T08:15:23;101397.47;;;19.82;65.87
68871;BME280;55906;52.278;6.808;2023-05-11T08:17:49;101391.28;;;19.74;66.24
68871;BME280;55906;52.278;6.808;2023-05-11T08:20:17;101393.09;;;19.37;65.73
68871;BME280;55906;52.278;6.808;2023-05-11T08:22:44;101402.84;;;19.73;66.17
68871;BME280;55906;52.278;6.808;2023-05-11T08:25:11;101397.44;;;19.94;65.99
68871;BME280;55906;52.278;6.808;2023-05-11T08:27:38;101401.84;;;20.06;65.97
68871;BME280;55906;52.278;6.808;2023-05-11T08:30:06;101400.88;;;20.18;65.17
68871;BME280;55906;52.278;6.808;2023-05-11T08:32:34;101405.34;;;20.14;65.67
68871;BME280;55906;52.278;6.808;2023-05-11T08:35:01;101395.50;;;20.27;65.26
68871;BME280;55906;52.278;6.808;2023-05-11T08:37:29;101398.09;;;20.45;65.17
68871;BME280;55906;52.278;6.808;2023-05-11T08:39:56;101404.38;;;20.32;63.85
68871;BME280;55906;52.278;6.808;2023-05-11T08:42:23;101398.06;;;20.50;65.03
68871;BME280;55906;52.278;6.808;2023-05-11T08:44:54;101404.97;;;20.80;63.92
68871;BME280;55906;52.278;6.808;2023-05-11T08:47:22;101404.06;;;20.87;64.14
68871;BME280;55906;52.278;6.808;2023-05-11T08:49:49;101405.72;;;21.03;63.91
68871;BME280;55906;52.278;6.808;2023-05-11T08:52:17;101405.56;;;21.21;63.60
68871;BME280;55906;52.278;6.808;2023-05-11T08:54:45;101402.19;;;20.98;60.69
68871;BME280;55906;52.278;6.808;2023-05-11T08:57:12;101404.88;;;20.98;62.92
68871;BME280;55906;52.278;6.808;2023-05-11T08:59:40;101412.50;;;21.44;61.61
68871;BME280;55906;52.278;6.808;2023-05-11T09:02:09;101409.69;;;21.57;60.77
68871;BME280;55906;52.278;6.808;2023-05-11T09:04:39;101419.31;;;21.75;61.15
68871;BME280;55906;52.278;6.808;2023-05-11T09:07:06;101419.13;;;21.90;60.76
68871;BME280;55906;52.278;6.808;2023-05-11T09:09:33;101411.00;;;21.98;60.28
68871;BME280;55906;52.278;6.808;2023-05-11T09:12:02;101410.91;;;22.07;59.60
68871;BME280;55906;52.278;6.808;2023-05-11T09:14:29;101417.94;;;22.19;59.94
68871;BME280;55906;52.278;6.808;2023-05-11T09:16:56;101413.25;;;22.34;59.32
68871;BME280;55906;52.278;6.808;2023-05-11T09:19:23;101415.94;;;22.34;57.74
68871;BME280;55906;52.278;6.808;2023-05-11T09:21:51;101417.44;;;22.54;57.41
68871;BME280;55906;52.278;6.808;2023-05-11T09:24:19;101405.75;;;22.58;57.07
68871;BME280;55906;52.278;6.808;2023-05-11T09:29:18;101410.53;;;22.97;55.99
68871;BME280;55906;52.278;6.808;2023-05-11T09:31:45;101399.34;;;23.23;56.35
68871;BME280;55906;52.278;6.808;2023-05-11T09:34:14;101398.19;;;23.38;55.49
68871;BME280;55906;52.278;6.808;2023-05-11T09:36:42;101402.59;;;23.44;55.54
68871;BME280;55906;52.278;6.808;2023-05-11T09:39:09;101392.72;;;23.44;56.06
68871;BME280;55906;52.278;6.808;2023-05-11T09:41:36;101392.34;;;23.66;54.32
68871;BME280;55906;52.278;6.808;2023-05-11T09:44:04;101395.03;;;23.66;54.50
68871;BME280;55906;52.278;6.808;2023-05-11T09:46:34;101388.69;;;23.70;53.84
68871;BME280;55906;52.278;6.808;2023-05-11T09:49:01;101394.34;;;23.53;54.39
68871;BME280;55906;52.278;6.808;2023-05-11T09:51:29;101392.97;;;23.78;53.62
68871;BME280;55906;52.278;6.808;2023-05-11T09:53:57;101394.44;;;23.94;53.83
68871;BME280;55906;52.278;6.808;2023-05-11T09:56:43;101389.69;;;24.07;51.85
68871;BME280;55906;52.278;6.808;2023-05-11T09:59:10;101398.31;;;24.23;52.96
68871;BME280;55906;52.278;6.808;2023-05-11T10:01:38;101393.69;;;24.31;52.82
68871;BME280;55906;52.278;6.808;2023-05-11T10:04:05;101390.06;;;24.32;51.93
68871;BME280;55906;52.278;6.808;2023-05-11T10:06:43;101384.44;;;24.01;50.46
68871;BME280;55906;52.278;6.808;2023-05-11T10:09:09;101406.00;;;23.98;52.86
68871;BME280;55906;52.278;6.808;2023-05-11T10:11:37;101391.09;;;24.25;52.23
68871;BME280;55906;52.278;6.808;2023-05-11T10:14:05;101390.03;;;24.34;51.29
68871;BME280;55906;52.278;6.808;2023-05-11T10:16:33;101391.44;;;24.50;51.33
68871;BME280;55906;52.278;6.808;2023-05-11T10:19:01;101393.75;;;24.28;51.42
68871;BME280;55906;52.278;6.808;2023-05-11T10:21:28;101390.47;;;24.12;52.09
68871;BME280;55906;52.278;6.808;2023-05-11T10:23:56;101379.75;;;24.11;51.93
68871;BME280;55906;52.278;6.808;2023-05-11T10:26:24;101375.09;;;24.19;51.67
68871;BME280;55906;52.278;6.808;2023-05-11T10:28:51;101384.44;;;24.01;52.26
68871;BME280;55906;52.278;6.808;2023-05-11T10:31:19;101375.00;;;23.82;52.53
68871;BME280;55906;52.278;6.808;2023-05-11T10:33:49;101378.44;;;23.42;53.00
68871;BME280;55906;52.278;6.808;2023-05-11T10:36:17;101381.91;;;23.47;53.51
68871;BME280;55906;52.278;6.808;2023-05-11T10:38:45;101377.91;;;23.20;53.83
68871;BME280;55906;52.278;6.808;2023-05-11T10:41:44;101379.78;;;23.17;53.92
68871;BME280;55906;52.278;6.808;2023-05-11T10:44:47;101380.91;;;23.04;54.21
68871;BME280;55906;52.278;6.808;2023-05-11T10:47:32;101386.47;;;22.91;55.16
68871;BME280;55906;52.278;6.808;2023-05-11T10:50:29;101392.00;;;22.79;54.90
68871;BME280;55906;52.278;6.808;2023-05-11T10:53:22;101386.88;;;22.65;54.20
68871;BME280;55906;52.278;6.808;2023-05-11T10:56:03;101395.84;;;22.63;55.09
68871;BME280;55906;52.278;6.808;2023-05-11T10:58:55;101396.84;;;22.57;55.10
68871;BME280;55906;52.278;6.808;2023-05-11T11:01:35;101403.91;;;22.63;55.51
68871;BME280;55906;52.278;6.808;2023-05-11T11:04:04;101404.75;;;22.65;55.31
68871;BME280;55906;52.278;6.808;2023-05-11T11:06:32;101401.16;;;22.66;54.94
68871;BME280;55906;52.278;6.808;2023-05-11T11:09:03;101402.16;;;22.60;54.39
68871;BME280;55906;52.278;6.808;2023-05-11T11:11:33;101398.94;;;22.35;54.21
68871;BME280;55906;52.278;6.808;2023-05-11T11:14:00;101400.78;;;22.32;54.54
68871;BME280;55906;52.278;6.808;2023-05-11T11:16:30;101398.84;;;22.42;54.72
68871;BME280;55906;52.278;6.808;2023-05-11T11:19:34;101401.66;;;22.32;53.58
68871;BME280;55906;52.278;6.808;2023-05-11T11:22:01;101404.22;;;22.42;54.90
68871;BME280;55906;52.278;6.808;2023-05-11T11:24:54;101395.25;;;22.43;54.51
68871;BME280;55906;52.278;6.808;2023-05-11T11:27:53;101394.88;;;22.68;53.77
68871;BME280;55906;52.278;6.808;2023-05-11T11:30:21;101398.34;;;22.75;53.96
68871;BME280;55906;52.278;6.808;2023-05-11T11:32:49;101391.84;;;22.91;53.04
68871;BME280;55906;52.278;6.808;2023-05-11T11:35:44;101392.47;;;23.07;51.68
68871;BME280;55906;52.278;6.808;2023-05-11T11:38:12;101390.28;;;23.29;52.68
68871;BME280;55906;52.278;6.808;2023-05-11T11:40:41;101398.25;;;22.83;52.59
68871;BME280;55906;52.278;6.808;2023-05-11T11:43:09;101395.84;;;23.18;53.03
68871;BME280;55906;52.278;6.808;2023-05-11T11:45:37;101387.50;;;23.35;52.99
68871;BME280;55906;52.278;6.808;2023-05-11T11:48:12;101383.41;;;23.65;51.91
68871;BME280;55906;52.278;6.808;2023-05-11T11:50:41;101388.50;;;23.29;51.67
68871;BME280;55906;52.278;6.808;2023-05-11T11:56:42;101386.84;;;23.72;51.35
68871;BME280;55906;52.278;6.808;2023-05-11T11:59:11;101391.78;;;23.93;52.29
68871;BME280;55906;52.278;6.808;2023-05-11T12:01:40;101387.47;;;23.84;52.60
68871;BME280;55906;52.278;6.808;2023-05-11T12:04:32;101391.59;;;24.02;51.87
68871;BME280;55906;52.278;6.808;2023-05-11T12:07:06;101390.84;;;23.96;50.59
68871;BME280;55906;52.278;6.808;2023-05-11T12:09:33;101380.28;;;23.37;52.98
68871;BME280;55906;52.278;6.808;2023-05-11T12:12:03;101387.16;;;23.56;52.70
68871;BME280;55906;52.278;6.808;2023-05-11T12:14:30;101385.84;;;23.77;52.55
68871;BME280;55906;52.278;6.808;2023-05-11T12:17:03;101380.78;;;23.62;52.12
68871;BME280;55906;52.278;6.808;2023-05-11T12:19:29;101382.63;;;23.58;52.54
68871;BME280;55906;52.278;6.808;2023-05-11T12:21:56;101383.56;;;23.57;52.43
68871;BME280;55906;52.278;6.808;2023-05-11T12:24:23;101381.59;;;23.66;52.02
68871;BME280;55906;52.278;6.808;2023-05-11T12:26:54;101382.44;;;23.68;51.99
68871;BME280;55906;52.278;6.808;2023-05-11T12:29:22;101380.31;;;23.85;51.29
68871;BME280;55906;52.278;6.808;2023-05-11T12:31:49;101376.78;;;23.81;51.71
68871;BME280;55906;52.278;6.808;2023-05-11T12:34:16;101379.72;;;23.69;52.09
68871;BME280;55906;52.278;6.808;2023-05-11T12:36:43;101382.25;;;23.77;51.83
68871;BME280;55906;52.278;6.808;2023-05-11T12:39:16;101377.94;;;23.70;51.71
68871;BME280;55906;52.278;6.808;2023-05-11T12:41:43;101376.09;;;23.72;52.33
68871;BME280;55906;52.278;6.808;2023-05-11T12:44:10;101383.56;;;23.57;52.47
68871;BME280;55906;52.278;6.808;2023-05-11T12:46:38;101379.09;;;23.56;52.85
68871;BME280;55906;52.278;6.808;2023-05-11T12:49:05;101379.41;;;23.37;53.08
68871;BME280;55906;52.278;6.808;2023-05-11T12:51:48;101376.56;;;23.47;52.18
68871;BME280;55906;52.278;6.808;2023-05-11T12:54:29;101381.91;;;23.47;52.96
68871;BME280;55906;52.278;6.808;2023-05-11T12:56:56;101382.13;;;23.35;52.70
68871;BME280;55906;52.278;6.808;2023-05-11T12:59:28;101387.88;;;23.14;53.07
68871;BME280;55906;52.278;6.808;2023-05-11T13:02:11;101394.44;;;22.97;52.75
68871;BME280;55906;52.278;6.808;2023-05-11T13:07:05;101400.28;;;22.65;54.20
68871;BME280;55906;52.278;6.808;2023-05-11T13:09:32;101391.66;;;22.45;54.72